Main page
METAR-TAF:

METAR-TAF

Airports :

Rafha Domestic Airport

Rafha, Saudi Arabia

latitude: 29-37N, longitude: 043-29E, elevation: 449 m

Current weather observation

The report was made 15 minutes ago, at 22:00 UTC
Wind 4 kt from the West
Temperature 32°C
Humidity 12%
Pressure 1004 hPa
Visibility 10 km or more
no clouds below 1500 m and no cumulonimbus

METAR: OERF 172200Z 26004KT CAVOK 32/M01 Q1004 NOSIG

Time: 01:15 (22:15 UTC)

Forecast

The report was made 11 hours and 15 minutes ago, at 11:00 UTC
Forecast valid from 17 at 12 UTC to 18 at 18 UTC
Wind 8 kt from the North
Visibility 10 km or more
no clouds below 1500 m and no cumulonimbus
Becoming
from 17 at 20 UTC to 17 at 22 UTC
Wind 3 kt from variable directions
Becoming
from 18 at 08 UTC to 18 at 10 UTC
Wind 10 kt from the North

TAF: OERF 171100Z 1712/1818 35008KT CAVOK BECMG 1720/1722 VRB03KT BECMG 1808/1810 35010KT

Weather observations and forecasts of more than 4000 airports (METAR and TAF reports).

The available stations are represented by yellow and red dots on the map.

Hover mouse over dot to see the name of the station.

Then click to see weather observations and forecasts.

To change the map : click on the green buttons with a black cross to zoom in, on the green button with a dash to zoom out, or on the green arrows for adjacent maps.


METAR-TAF: